sensor_id;sensor_type;location;lat;lon;timestamp;temperature;humidity
11067;DHT22;29763;50.904;5.530;2023-03-14T00:02:10;10.40;99.90
11067;DHT22;29763;50.904;5.530;2023-03-14T00:04:36;10.30;99.90
11067;DHT22;29763;50.904;5.530;2023-03-14T00:07:02;10.40;99.90
11067;DHT22;29763;50.904;5.530;2023-03-14T00:09:28;10.40;99.90
11067;DHT22;29763;50.904;5.530;2023-03-14T00:11:55;10.40;99.90
11067;DHT22;29763;50.904;5.530;2023-03-14T00:14:21;10.40;99.90
11067;DHT22;29763;50.904;5.530;2023-03-14T00:16:47;10.40;99.90
11067;DHT22;29763;50.904;5.530;2023-03-14T00:19:13;10.40;99.90
11067;DHT22;29763;50.904;5.530;2023-03-14T00:21:38;10.40;99.90
11067;DHT22;29763;50.904;5.530;2023-03-14T00:24:04;10.40;99.90
11067;DHT22;29763;50.904;5.530;2023-03-14T00:26:31;10.50;99.90
11067;DHT22;29763;50.904;5.530;2023-03-14T00:28:57;10.50;99.90
11067;DHT22;29763;50.904;5.530;2023-03-14T00:31:23;10.50;99.90
11067;DHT22;29763;50.904;5.530;2023-03-14T00:33:50;10.50;99.90
11067;DHT22;29763;50.904;5.530;2023-03-14T00:36:17;10.50;99.90
11067;DHT22;29763;50.904;5.530;2023-03-14T00:38:48;10.50;99.90
11067;DHT22;29763;50.904;5.530;2023-03-14T00:41:18;10.50;99.90
11067;DHT22;29763;50.904;5.530;2023-03-14T00:43:45;10.50;99.90
11067;DHT22;29763;50.904;5.530;2023-03-14T00:46:11;10.40;99.90
11067;DHT22;29763;50.904;5.530;2023-03-14T00:48:38;10.40;99.90
11067;DHT22;29763;50.904;5.530;2023-03-14T00:51:05;10.40;99.90
11067;DHT22;29763;50.904;5.530;2023-03-14T00:53:35;10.40;99.90
11067;DHT22;29763;50.904;5.530;2023-03-14T00:56:07;10.50;99.90
11067;DHT22;29763;50.904;5.530;2023-03-14T00:58:33;10.50;99.90
11067;DHT22;29763;50.904;5.530;2023-03-14T01:01:02;10.50;99.90
11067;DHT22;29763;50.904;5.530;2023-03-14T01:03:30;10.50;99.90
11067;DHT22;29763;50.904;5.530;2023-03-14T01:06:07;10.40;99.90
11067;DHT22;29763;50.904;5.530;2023-03-14T01:08:33;10.50;99.90
11067;DHT22;29763;50.904;5.530;2023-03-14T01:10:58;10.50;99.90
11067;DHT22;29763;50.904;5.530;2023-03-14T01:13:24;10.50;99.90
11067;DHT22;29763;50.904;5.530;2023-03-14T01:15:50;10.40;99.90
11067;DHT22;29763;50.904;5.530;2023-03-14T01:18:16;10.40;99.90
11067;DHT22;29763;50.904;5.530;2023-03-14T01:20:41;10.40;99.90
11067;DHT22;29763;50.904;5.530;2023-03-14T01:23:07;10.40;99.90
11067;DHT22;29763;50.904;5.530;2023-03-14T01:25:33;10.40;99.90
11067;DHT22;29763;50.904;5.530;2023-03-14T01:27:59;10.30;99.90
11067;DHT22;29763;50.904;5.530;2023-03-14T01:30:26;10.30;99.90
11067;DHT22;29763;50.904;5.530;2023-03-14T01:32:51;10.30;99.90
11067;DHT22;29763;50.904;5.530;2023-03-14T01:35:17;10.40;99.90
11067;DHT22;29763;50.904;5.530;2023-03-14T01:37:43;10.40;99.90
11067;DHT22;29763;50.904;5.530;2023-03-14T01:40:11;10.30;99.90
11067;DHT22;29763;50.904;5.530;2023-03-14T01:42:37;10.30;99.90
11067;DHT22;29763;50.904;5.530;2023-03-14T01:45:03;10.30;99.90
11067;DHT22;29763;50.904;5.530;2023-03-14T01:47:28;10.30;99.90
11067;DHT22;29763;50.904;5.530;2023-03-14T01:50:08;10.30;99.90
11067;DHT22;29763;50.904;5.530;2023-03-14T01:52:46;10.30;99.90
11067;DHT22;29763;50.904;5.530;2023-03-14T01:55:19;10.30;99.90
11067;DHT22;29763;50.904;5.530;2023-03-14T01:57:58;10.30;99.90
11067;DHT22;29763;50.904;5.530;2023-03-14T02:00:25;10.30;99.90
11067;DHT22;29763;50.904;5.530;2023-03-14T02:02:55;10.30;99.90
11067;DHT22;29763;50.904;5.530;2023-03-14T02:05:30;10.30;99.90
11067;DHT22;29763;50.904;5.530;2023-03-14T02:08:00;10.40;99.90
11067;DHT22;29763;50.904;5.530;2023-03-14T02:10:28;10.40;99.90
11067;DHT22;29763;50.904;5.530;2023-03-14T02:12:56;10.40;99.90
11067;DHT22;29763;50.904;5.530;2023-03-14T02:15:25;10.50;99.90
11067;DHT22;29763;50.904;5.530;2023-03-14T02:17:51;10.50;99.90
11067;DHT22;29763;50.904;5.530;2023-03-14T02:23:05;10.50;99.90
11067;DHT22;29763;50.904;5.530;2023-03-14T02:26:17;10.40;99.90
11067;DHT22;29763;50.904;5.530;2023-03-14T02:28:46;10.50;99.90
11067;DHT22;29763;50.904;5.530;2023-03-14T02:31:12;10.50;99.90
11067;DHT22;29763;50.904;5.530;2023-03-14T02:33:38;10.40;99.90
11067;DHT22;29763;50.904;5.530;2023-03-14T02:36:11;10.50;99.90
11067;DHT22;29763;50.904;5.530;2023-03-14T02:39:06;10.40;99.90
11067;DHT22;29763;50.904;5.530;2023-03-14T02:41:34;10.40;99.90
11067;DHT22;29763;50.904;5.530;2023-03-14T02:44:00;10.30;99.90
11067;DHT22;29763;50.904;5.530;2023-03-14T02:46:25;10.30;99.90
11067;DHT22;29763;50.904;5.530;2023-03-14T02:48:53;10.20;99.90
11067;DHT22;29763;50.904;5.530;2023-03-14T02:51:21;10.20;99.90
11067;DHT22;29763;50.904;5.530;2023-03-14T02:53:47;10.10;99.90
11067;DHT22;29763;50.904;5.530;2023-03-14T02:56:12;10.10;99.90
11067;DHT22;29763;50.904;5.530;2023-03-14T02:58:39;10.00;99.90
11067;DHT22;29763;50.904;5.530;2023-03-14T03:01:05;10.00;99.90
11067;DHT22;29763;50.904;5.530;2023-03-14T03:03:31;10.00;99.90
11067;DHT22;29763;50.904;5.530;2023-03-14T03:05:57;9.90;99.90
11067;DHT22;29763;50.904;5.530;2023-03-14T03:08:25;9.90;99.90
11067;DHT22;29763;50.904;5.530;2023-03-14T03:10:52;9.90;99.90
11067;DHT22;29763;50.904;5.530;2023-03-14T03:13:18;9.90;99.90
11067;DHT22;29763;50.904;5.530;2023-03-14T03:15:44;9.90;99.90
11067;DHT22;29763;50.904;5.530;2023-03-14T03:18:10;9.80;99.90
11067;DHT22;29763;50.904;5.530;2023-03-14T03:20:37;9.80;99.90
11067;DHT22;29763;50.904;5.530;2023-03-14T03:23:03;9.80;99.90
11067;DHT22;29763;50.904;5.530;2023-03-14T03:25:30;9.80;99.90
11067;DHT22;29763;50.904;5.530;2023-03-14T03:27:56;9.80;99.90
11067;DHT22;29763;50.904;5.530;2023-03-14T03:30:22;9.70;99.90
11067;DHT22;29763;50.904;5.530;2023-03-14T03:32:48;9.80;99.90
11067;DHT22;29763;50.904;5.530;2023-03-14T03:35:14;9.80;99.90
11067;DHT22;29763;50.904;5.530;2023-03-14T03:37:40;9.80;99.90
11067;DHT22;29763;50.904;5.530;2023-03-14T03:40:10;9.70;99.90
11067;DHT22;29763;50.904;5.530;2023-03-14T03:42:36;9.80;99.90
11067;DHT22;29763;50.904;5.530;2023-03-14T03:45:02;9.80;99.90
11067;DHT22;29763;50.904;5.530;2023-03-14T03:47:30;9.90;99.90
11067;DHT22;29763;50.904;5.530;2023-03-14T03:49:56;10.00;99.90
11067;DHT22;29763;50.904;5.530;2023-03-14T03:52:23;10.00;99.90
11067;DHT22;29763;50.904;5.530;2023-03-14T03:54:49;10.00;99.90
11067;DHT22;29763;50.904;5.530;2023-03-14T03:57:15;10.00;99.90
11067;DHT22;29763;50.904;5.530;2023-03-14T03:59:40;10.00;99.90
11067;DHT22;29763;50.904;5.530;2023-03-14T04:02:07;10.00;99.90
11067;DHT22;29763;50.904;5.530;2023-03-14T04:04:32;10.00;99.90
11067;DHT22;29763;50.904;5.530;2023-03-14T04:06:58;10.00;99.90
11067;DHT22;29763;50.904;5.530;2023-03-14T04:09:24;10.00;99.90
11067;DHT22;29763;50.904;5.530;2023-03-14T04:11:50;9.90;99.90
11067;DHT22;29763;50.904;5.530;2023-03-14T04:14:16;10.00;99.90
11067;DHT22;29763;50.904;5.530;2023-03-14T04:16:42;10.00;99.90
11067;DHT22;29763;50.904;5.530;2023-03-14T04:19:07;9.90;99.90
11067;DHT22;29763;50.904;5.530;2023-03-14T04:21:33;10.00;99.90
11067;DHT22;29763;50.904;5.530;2023-03-14T04:23:59;10.00;99.90
11067;DHT22;29763;50.904;5.530;2023-03-14T04:26:25;9.90;99.90
11067;DHT22;29763;50.904;5.530;2023-03-14T04:28:50;9.90;99.90
11067;DHT22;29763;50.904;5.530;2023-03-14T04:31:19;9.90;99.90
11067;DHT22;29763;50.904;5.530;2023-03-14T04:33:45;9.90;99.90
11067;DHT22;29763;50.904;5.530;2023-03-14T04:36:11;9.90;99.90
11067;DHT22;29763;50.904;5.530;2023-03-14T04:38:37;9.90;99.90
11067;DHT22;29763;50.904;5.530;2023-03-14T04:41:03;9.90;99.90
11067;DHT22;29763;50.904;5.530;2023-03-14T04:43:29;9.90;99.90
11067;DHT22;29763;50.904;5.530;2023-03-14T04:45:56;10.00;99.90
11067;DHT22;29763;50.904;5.530;2023-03-14T04:48:24;9.90;99.90
11067;DHT22;29763;50.904;5.530;2023-03-14T04:50:50;9.90;99.90
11067;DHT22;29763;50.904;5.530;2023-03-14T04:53:17;9.90;99.90
11067;DHT22;29763;50.904;5.530;2023-03-14T04:55:50;9.90;99.90
11067;DHT22;29763;50.904;5.530;2023-03-14T04:58:17;9.90;99.90
11067;DHT22;29763;50.904;5.530;2023-03-14T05:00:42;9.90;99.90
11067;DHT22;29763;50.904;5.530;2023-03-14T05:03:08;10.00;99.90
11067;DHT22;29763;50.904;5.530;2023-03-14T05:05:34;9.90;99.90
11067;DHT22;29763;50.904;5.530;2023-03-14T05:08:03;9.90;99.90
11067;DHT22;29763;50.904;5.530;2023-03-14T05:10:28;9.90;99.90
11067;DHT22;29763;50.904;5.530;2023-03-14T05:12:54;9.90;99.90
11067;DHT22;29763;50.904;5.530;2023-03-14T05:15:23;9.90;99.90
11067;DHT22;29763;50.904;5.530;2023-03-14T05:17:49;9.90;99.90
11067;DHT22;29763;50.904;5.530;2023-03-14T05:20:15;9.80;99.90
11067;DHT22;29763;50.904;5.530;2023-03-14T05:22:42;9.80;99.90
11067;DHT22;29763;50.904;5.530;2023-03-14T05:25:08;9.80;99.90
11067;DHT22;29763;50.904;5.530;2023-03-14T05:27:34;9.90;99.90
11067;DHT22;29763;50.904;5.530;2023-03-14T05:30:01;9.90;99.90
11067;DHT22;29763;50.904;5.530;2023-03-14T05:32:28;9.90;99.90
11067;DHT22;29763;50.904;5.530;2023-03-14T05:34:53;9.90;99.90
11067;DHT22;29763;50.904;5.530;2023-03-14T05:37:23;9.90;99.90
11067;DHT22;29763;50.904;5.530;2023-03-14T05:39:49;9.90;99.90
11067;DHT22;29763;50.904;5.530;2023-03-14T05:42:15;9.90;99.90
11067;DHT22;29763;50.904;5.530;2023-03-14T05:44:41;9.90;99.90
11067;DHT22;29763;50.904;5.530;2023-03-14T05:47:06;9.90;99.90
11067;DHT22;29763;50.904;5.530;2023-03-14T05:49:32;9.90;99.90
11067;DHT22;29763;50.904;5.530;2023-03-14T05:51:58;9.90;99.90
11067;DHT22;29763;50.904;5.530;2023-03-14T05:54:24;9.90;99.90
11067;DHT22;29763;50.904;5.530;2023-03-14T05:56:49;10.00;99.90
11067;DHT22;29763;50.904;5.530;2023-03-14T05:59:15;10.00;99.90
11067;DHT22;29763;50.904;5.530;2023-03-14T06:01:41;10.00;99.90
11067;DHT22;29763;50.904;5.530;2023-03-14T06:04:07;10.00;99.90
11067;DHT22;29763;50.904;5.530;2023-03-14T06:06:32;10.00;99.90
11067;DHT22;29763;50.904;5.530;2023-03-14T06:08:58;9.90;99.90
11067;DHT22;29763;50.904;5.530;2023-03-14T06:11:24;9.90;99.90
11067;DHT22;29763;50.904;5.530;2023-03-14T06:13:53;9.90;99.90
11067;DHT22;29763;50.904;5.530;2023-03-14T06:16:19;10.00;99.90
11067;DHT22;29763;50.904;5.530;2023-03-14T06:18:45;9.90;99.90
11067;DHT22;29763;50.904;5.530;2023-03-14T06:21:12;10.00;99.90
11067;DHT22;29763;50.904;5.530;2023-03-14T06:23:41;10.00;99.90
11067;DHT22;29763;50.904;5.530;2023-03-14T06:26:07;10.00;99.90
11067;DHT22;29763;50.904;5.530;2023-03-14T06:28:32;10.00;99.90
11067;DHT22;29763;50.904;5.530;2023-03-14T06:30:59;10.00;99.90
11067;DHT22;29763;50.904;5.530;2023-03-14T06:33:26;10.00;99.90
11067;DHT22;29763;50.904;5.530;2023-03-14T06:35:51;10.00;99.90
11067;DHT22;29763;50.904;5.530;2023-03-14T06:38:23;10.00;99.90
11067;DHT22;29763;50.904;5.530;2023-03-14T06:40:48;10.00;99.90
11067;DHT22;29763;50.904;5.530;2023-03-14T06:43:17;10.10;99.90
11067;DHT22;29763;50.904;5.530;2023-03-14T06:45:43;10.10;99.90
11067;DHT22;29763;50.904;5.530;2023-03-14T06:48:09;10.20;99.90
11067;DHT22;29763;50.904;5.530;2023-03-14T06:50:37;10.20;99.90
11067;DHT22;29763;50.904;5.530;2023-03-14T06:53:03;10.20;99.90
11067;DHT22;29763;50.904;5.530;2023-03-14T06:55:29;10.30;99.90
11067;DHT22;29763;50.904;5.530;2023-03-14T06:57:55;10.40;99.90
11067;DHT22;29763;50.904;5.530;2023-03-14T07:00:20;10.50;99.90
11067;DHT22;29763;50.904;5.530;2023-03-14T07:02:46;10.60;99.90
11067;DHT22;29763;50.904;5.530;2023-03-14T07:05:12;10.60;99.90
11067;DHT22;29763;50.904;5.530;2023-03-14T07:07:39;10.70;99.90
11067;DHT22;29763;50.904;5.530;2023-03-14T07:10:05;10.70;99.90
11067;DHT22;29763;50.904;5.530;2023-03-14T07:12:31;10.80;99.90
11067;DHT22;29763;50.904;5.530;2023-03-14T07:14:56;10.90;99.90
11067;DHT22;29763;50.904;5.530;2023-03-14T07:17:22;10.90;99.90
11067;DHT22;29763;50.904;5.530;2023-03-14T07:19:48;11.00;99.90
11067;DHT22;29763;50.904;5.530;2023-03-14T07:22:14;11.00;99.90
11067;DHT22;29763;50.904;5.530;2023-03-14T07:24:40;11.00;99.90
11067;DHT22;29763;50.904;5.530;2023-03-14T07:27:05;11.00;99.90
11067;DHT22;29763;50.904;5.530;2023-03-14T07:29:31;11.00;99.90
11067;DHT22;29763;50.904;5.530;2023-03-14T07:31:57;11.00;99.90
11067;DHT22;29763;50.904;5.530;2023-03-14T07:34:23;11.00;99.90
11067;DHT22;29763;50.904;5.530;2023-03-14T07:36:51;10.90;99.90
11067;DHT22;29763;50.904;5.530;2023-03-14T07:39:17;10.90;99.90
11067;DHT22;29763;50.904;5.530;2023-03-14T07:41:43;10.90;99.90
11067;DHT22;29763;50.904;5.530;2023-03-14T07:44:09;10.80;99.90
11067;DHT22;29763;50.904;5.530;2023-03-14T07:46:34;10.80;99.90
11067;DHT22;29763;50.904;5.530;2023-03-14T07:49:00;10.80;99.90
11067;DHT22;29763;50.904;5.530;2023-03-14T07:51:26;10.80;99.90
11067;DHT22;29763;50.904;5.530;2023-03-14T07:53:54;10.80;99.90
11067;DHT22;29763;50.904;5.530;2023-03-14T07:56:20;10.80;99.90
11067;DHT22;29763;50.904;5.530;2023-03-14T07:58:46;10.70;99.90
11067;DHT22;29763;50.904;5.530;2023-03-14T08:01:12;10.60;99.90
11067;DHT22;29763;50.904;5.530;2023-03-14T08:03:38;10.60;99.90
11067;DHT22;29763;50.904;5.530;2023-03-14T08:06:04;10.60;99.90
11067;DHT22;29763;50.904;5.530;2023-03-14T08:08:30;10.60;99.90
11067;DHT22;29763;50.904;5.530;2023-03-14T08:10:55;10.50;99.90
11067;DHT22;29763;50.904;5.530;2023-03-14T08:13:21;10.10;99.90
11067;DHT22;29763;50.904;5.530;2023-03-14T08:15:51;9.80;99.90
11067;DHT22;29763;50.904;5.530;2023-03-14T08:18:17;9.60;99.90
11067;DHT22;29763;50.904;5.530;2023-03-14T08:20:43;9.50;99.90
11067;DHT22;29763;50.904;5.530;2023-03-14T08:23:08;9.30;99.90
11067;DHT22;29763;50.904;5.530;2023-03-14T08:25:34;9.20;99.90
11067;DHT22;29763;50.904;5.530;2023-03-14T08:28:00;9.00;99.90
11067;DHT22;29763;50.904;5.530;2023-03-14T08:30:26;8.90;99.90
11067;DHT22;29763;50.904;5.530;2023-03-14T08:32:56;8.90;99.90
11067;DHT22;29763;50.904;5.530;2023-03-14T08:35:23;8.70;99.90
11067;DHT22;29763;50.904;5.530;2023-03-14T08:37:49;8.80;99.90
11067;DHT22;29763;50.904;5.530;2023-03-14T08:40:15;8.70;99.90
11067;DHT22;29763;50.904;5.530;2023-03-14T08:42:42;8.70;99.90
11067;DHT22;29763;50.904;5.530;2023-03-14T08:45:10;8.70;99.90
11067;DHT22;29763;50.904;5.530;2023-03-14T08:47:36;8.60;99.90
11067;DHT22;29763;50.904;5.530;2023-03-14T08:50:04;8.60;99.90
11067;DHT22;29763;50.904;5.530;2023-03-14T08:52:30;8.60;99.90
11067;DHT22;29763;50.904;5.530;2023-03-14T08:55:03;8.50;99.90
11067;DHT22;29763;50.904;5.530;2023-03-14T08:57:29;8.40;99.90
11067;DHT22;29763;50.904;5.530;2023-03-14T08:59:56;8.40;99.90
11067;DHT22;29763;50.904;5.530;2023-03-14T09:02:23;8.30;99.90
11067;DHT22;29763;50.904;5.530;2023-03-14T09:04:53;8.20;99.90
11067;DHT22;29763;50.904;5.530;2023-03-14T09:07:19;8.10;99.90
11067;DHT22;29763;50.904;5.530;2023-03-14T09:09:45;8.10;99.90
11067;DHT22;29763;50.904;5.530;2023-03-14T09:12:11;8.20;99.90
11067;DHT22;29763;50.904;5.530;2023-03-14T09:14:37;8.30;99.90
11067;DHT22;29763;50.904;5.530;2023-03-14T09:17:04;8.30;99.90
11067;DHT22;29763;50.904;5.530;2023-03-14T09:19:30;8.40;99.90
11067;DHT22;29763;50.904;5.530;2023-03-14T09:21:56;8.50;99.90
11067;DHT22;29763;50.904;5.530;2023-03-14T09:24:22;8.70;99.90
11067;DHT22;29763;50.904;5.530;2023-03-14T09:26:50;8.70;99.90
11067;DHT22;29763;50.904;5.530;2023-03-14T09:29:16;8.80;99.90
11067;DHT22;29763;50.904;5.530;2023-03-14T09:31:42;8.80;99.90
11067;DHT22;29763;50.904;5.530;2023-03-14T09:34:10;8.80;99.90
11067;DHT22;29763;50.904;5.530;2023-03-14T09:36:35;9.00;99.90
11067;DHT22;29763;50.904;5.530;2023-03-14T09:39:03;8.90;99.90
11067;DHT22;29763;50.904;5.530;2023-03-14T09:41:39;8.90;99.90
11067;DHT22;29763;50.904;5.530;2023-03-14T09:44:16;8.80;99.90
11067;DHT22;29763;50.904;5.530;2023-03-14T09:46:45;8.70;99.90
11067;DHT22;29763;50.904;5.530;2023-03-14T09:51:49;8.80;99.90
11067;DHT22;29763;50.904;5.530;2023-03-14T09:54:43;8.90;99.90
11067;DHT22;29763;50.904;5.530;2023-03-14T09:57:18;9.20;99.90
11067;DHT22;29763;50.904;5.530;2023-03-14T09:59:46;9.30;99.90
11067;DHT22;29763;50.904;5.530;2023-03-14T10:04:43;9.30;99.90
11067;DHT22;29763;50.904;5.530;2023-03-14T10:07:14;9.40;99.90
11067;DHT22;29763;50.904;5.530;2023-03-14T10:09:43;9.30;99.90
11067;DHT22;29763;50.904;5.530;2023-03-14T10:12:10;9.20;99.90
11067;DHT22;29763;50.904;5.530;2023-03-14T10:14:37;9.00;99.90
11067;DHT22;29763;50.904;5.530;2023-03-14T10:17:12;8.80;99.90
11067;DHT22;29763;50.904;5.530;2023-03-14T10:19:55;8.40;99.90
11067;DHT22;29763;50.904;5.530;2023-03-14T10:22:23;8.30;99.90
11067;DHT22;29763;50.904;5.530;2023-03-14T10:24:56;8.20;99.90
11067;DHT22;29763;50.904;5.530;2023-03-14T10:27:30;8.20;99.90
11067;DHT22;29763;50.904;5.530;2023-03-14T10:30:03;8.30;99.90
11067;DHT22;29763;50.904;5.530;2023-03-14T10:32:37;8.40;99.90
11067;DHT22;29763;50.904;5.530;2023-03-14T10:37:57;8.80;99.90
11067;DHT22;29763;50.904;5.530;2023-03-14T10:40:47;9.10;99.90
11067;DHT22;29763;50.904;5.530;2023-03-14T10:43:22;9.60;99.90
11067;DHT22;29763;50.904;5.530;2023-03-14T10:45:58;9.60;99.90
11067;DHT22;29763;50.904;5.530;2023-03-14T10:48:35;9.60;99.90
11067;DHT22;29763;50.904;5.530;2023-03-14T10:51:25;9.60;99.90
11067;DHT22;29763;50.904;5.530;2023-03-14T10:54:11;9.40;99.90
11067;DHT22;29763;50.904;5.530;2023-03-14T10:56:38;9.40;99.90
11067;DHT22;29763;50.904;5.530;2023-03-14T10:59:07;9.30;99.90
11067;DHT22;29763;50.904;5.530;2023-03-14T11:15:25;8.90;99.90
11067;DHT22;29763;50.904;5.530;2023-03-14T11:20:51;8.30;99.90
11067;DHT22;29763;50.904;5.530;2023-03-14T11:23:21;8.20;99.90
11067;DHT22;29763;50.904;5.530;2023-03-14T11:28:36;8.00;99.90
11067;DHT22;29763;50.904;5.530;2023-03-14T11:31:04;8.10;99.90
11067;DHT22;29763;50.904;5.530;2023-03-14T11:33:55;8.10;99.90
11067;DHT22;29763;50.904;5.530;2023-03-14T11:36:28;8.00;99.90
11067;DHT22;29763;50.904;5.530;2023-03-14T11:38:58;7.90;99.90
11067;DHT22;29763;50.904;5.530;2023-03-14T11:41:25;8.00;99.90
11067;DHT22;29763;50.904;5.530;2023-03-14T11:43:55;8.10;99.90
11067;DHT22;29763;50.904;5.530;2023-03-14T11:46:34;8.10;99.90
11067;DHT22;29763;50.904;5.530;2023-03-14T11:51:37;8.00;99.90
11067;DHT22;29763;50.904;5.530;2023-03-14T11:54:18;8.00;99.90
11067;DHT22;29763;50.904;5.530;2023-03-14T11:57:24;7.60;99.90
11067;DHT22;29763;50.904;5.530;2023-03-14T12:00:00;7.30;99.90
11067;DHT22;29763;50.904;5.530;2023-03-14T12:03:10;7.10;99.90
11067;DHT22;29763;50.904;5.530;2023-03-14T12:06:05;7.10;99.90
11067;DHT22;29763;50.904;5.530;2023-03-14T12:08:49;7.20;99.90
11067;DHT22;29763;50.904;5.530;2023-03-14T12:16:46;7.90;99.90
11067;DHT22;29763;50.904;5.530;2023-03-14T12:19:26;8.40;99.90
11067;DHT22;29763;50.904;5.530;2023-03-14T12:24:27;9.20;99.90
11067;DHT22;29763;50.904;5.530;2023-03-14T12:26:59;9.60;99.90
11067;DHT22;29763;50.904;5.530;2023-03-14T12:29:28;9.90;99.90
11067;DHT22;29763;50.904;5.530;2023-03-14T12:34:34;10.20;99.90
11067;DHT22;29763;50.904;5.530;2023-03-14T12:48:21;8.50;99.90
11067;DHT22;29763;50.904;5.530;2023-03-14T13:04:53;8.10;99.90
11067;DHT22;29763;50.904;5.530;2023-03-14T13:10:26;8.00;99.90
11067;DHT22;29763;50.904;5.530;2023-03-14T13:13:07;7.90;99.90
11067;DHT22;29763;50.904;5.530;2023-03-14T13:15:46;7.60;99.90
11067;DHT22;29763;50.904;5.530;2023-03-14T13:18:18;7.40;99.90
11067;DHT22;29763;50.904;5.530;2023-03-14T13:20:59;7.50;99.90
11067;DHT22;29763;50.904;5.530;2023-03-14T13:23:29;7.40;99.90
11067;DHT22;29763;50.904;5.530;2023-03-14T13:25:56;7.40;99.90
11067;DHT22;29763;50.904;5.530;2023-03-14T13:28:23;7.40;99.90
11067;DHT22;29763;50.904;5.530;2023-03-14T13:30:50;7.40;99.90
11067;DHT22;29763;50.904;5.530;2023-03-14T13:33:22;7.50;99.90
11067;DHT22;29763;50.904;5.530;2023-03-14T13:35:59;7.60;99.90
11067;DHT22;29763;50.904;5.530;2023-03-14T13:38:28;7.70;99.90
11067;DHT22;29763;50.904;5.530;2023-03-14T13:40:57;7.70;99.90
11067;DHT22;29763;50.904;5.530;2023-03-14T13:43:46;7.80;99.90
11067;DHT22;29763;50.904;5.530;2023-03-14T13:46:22;7.80;99.90
11067;DHT22;29763;50.904;5.530;2023-03-14T13:49:10;7.70;99.90
11067;DHT22;29763;50.904;5.530;2023-03-14T13:51:40;7.60;99.90
11067;DHT22;29763;50.904;5.530;2023-03-14T13:54:17;7.60;99.90
11067;DHT22;29763;50.904;5.530;2023-03-14T13:56:44;7.60;99.90
11067;DHT22;29763;50.904;5.530;2023-03-14T13:59:31;7.60;99.90
11067;DHT22;29763;50.904;5.530;2023-03-14T14:02:00;7.70;99.90
11067;DHT22;29763;50.904;5.530;2023-03-14T14:04:26;7.80;99.90
11067;DHT22;29763;50.904;5.530;2023-03-14T14:07:10;7.80;99.90
11067;DHT22;29763;50.904;5.530;2023-03-14T14:09:41;7.70;99.90
11067;DHT22;29763;50.904;5.530;2023-03-14T14:12:18;7.50;99.90
11067;DHT22;29763;50.904;5.530;2023-03-14T14:15:05;7.30;99.90
11067;DHT22;29763;50.904;5.530;2023-03-14T14:17:56;7.20;99.90
11067;DHT22;29763;50.904;5.530;2023-03-14T14:20:25;7.10;99.90
11067;DHT22;29763;50.904;5.530;2023-03-14T14:22:58;7.00;99.90
11067;DHT22;29763;50.904;5.530;2023-03-14T14:25:28;7.00;99.90
11067;DHT22;29763;50.904;5.530;2023-03-14T14:27:55;7.00;99.90
11067;DHT22;29763;50.904;5.530;2023-03-14T14:32:48;7.30;99.90
11067;DHT22;29763;50.904;5.530;2023-03-14T14:35:49;7.40;99.90
11067;DHT22;29763;50.904;5.530;2023-03-14T14:38:17;7.60;99.90
11067;DHT22;29763;50.904;5.530;2023-03-14T14:40:48;7.60;99.90
11067;DHT22;29763;50.904;5.530;2023-03-14T14:43:23;7.60;99.90
11067;DHT22;29763;50.904;5.530;2023-03-14T14:45:52;7.70;99.90
11067;DHT22;29763;50.904;5.530;2023-03-14T14:48:26;7.70;99.90
11067;DHT22;29763;50.904;5.530;2023-03-14T14:51:01;7.60;99.90
11067;DHT22;29763;50.904;5.530;2023-03-14T14:53:36;7.50;99.90
11067;DHT22;29763;50.904;5.530;2023-03-14T14:56:21;7.30;99.90
11067;DHT22;29763;50.904;5.530;2023-03-14T14:58:51;7.40;99.90
11067;DHT22;29763;50.904;5.530;2023-03-14T15:01:25;7.40;99.90
11067;DHT22;29763;50.904;5.530;2023-03-14T15:03:58;7.40;99.90
11067;DHT22;29763;50.904;5.530;2023-03-14T15:06:28;7.40;99.90
11067;DHT22;29763;50.904;5.530;2023-03-14T15:08:54;7.50;99.90
11067;DHT22;29763;50.904;5.530;2023-03-14T15:11:23;7.50;99.90
11067;DHT22;29763;50.904;5.530;2023-03-14T15:13:58;7.40;99.90
11067;DHT22;29763;50.904;5.530;2023-03-14T15:16:28;7.50;99.90
11067;DHT22;29763;50.904;5.530;2023-03-14T15:18:57;7.50;99.90
11067;DHT22;29763;50.904;5.530;2023-03-14T15:21:26;7.40;99.90
11067;DHT22;29763;50.904;5.530;2023-03-14T15:23:55;7.50;99.90
11067;DHT22;29763;50.904;5.530;2023-03-14T15:26:23;7.40;99.90
11067;DHT22;29763;50.904;5.530;2023-03-14T15:28:49;7.40;99.90
11067;DHT22;29763;50.904;5.530;2023-03-14T15:31:16;7.40;99.90
11067;DHT22;29763;50.904;5.530;2023-03-14T15:33:44;7.30;99.90
11067;DHT22;29763;50.904;5.530;2023-03-14T15:36:26;7.20;99.90
11067;DHT22;29763;50.904;5.530;2023-03-14T15:38:52;7.20;99.90
11067;DHT22;29763;50.904;5.530;2023-03-14T15:41:19;7.20;99.90
11067;DHT22;29763;50.904;5.530;2023-03-14T15:43:52;7.10;99.90
11067;DHT22;29763;50.904;5.530;2023-03-14T15:46:18;7.00;99.90
11067;DHT22;29763;50.904;5.530;2023-03-14T15:48:45;7.00;99.90
11067;DHT22;29763;50.904;5.530;2023-03-14T15:51:11;7.00;99.90
11067;DHT22;29763;50.904;5.530;2023-03-14T15:53:37;6.90;99.90
11067;DHT22;29763;50.904;5.530;2023-03-14T15:56:05;6.60;99.90
11067;DHT22;29763;50.904;5.530;2023-03-14T15:58:31;6.40;99.90
11067;DHT22;29763;50.904;5.530;2023-03-14T16:01:00;6.30;99.90
11067;DHT22;29763;50.904;5.530;2023-03-14T16:03:28;6.10;99.90
11067;DHT22;29763;50.904;5.530;2023-03-14T16:05:54;6.00;99.90
11067;DHT22;29763;50.904;5.530;2023-03-14T16:08:21;6.00;99.90
11067;DHT22;29763;50.904;5.530;2023-03-14T16:10:48;6.10;99.90
11067;DHT22;29763;50.904;5.530;2023-03-14T16:13:14;6.20;99.90
11067;DHT22;29763;50.904;5.530;2023-03-14T16:15:59;6.20;99.90
11067;DHT22;29763;50.904;5.530;2023-03-14T16:18:28;6.10;99.90
11067;DHT22;29763;50.904;5.530;2023-03-14T16:21:00;6.20;99.90
11067;DHT22;29763;50.904;5.530;2023-03-14T16:23:27;6.20;99.90
11067;DHT22;29763;50.904;5.530;2023-03-14T16:25:53;6.20;99.90
11067;DHT22;29763;50.904;5.530;2023-03-14T16:28:20;6.30;99.90
11067;DHT22;29763;50.904;5.530;2023-03-14T16:30:46;6.30;99.90
11067;DHT22;29763;50.904;5.530;2023-03-14T16:33:13;6.30;99.90
11067;DHT22;29763;50.904;5.530;2023-03-14T16:35:39;6.30;99.90
11067;DHT22;29763;50.904;5.530;2023-03-14T16:38:05;6.30;99.90
11067;DHT22;29763;50.904;5.530;2023-03-14T16:40:31;6.20;99.90
11067;DHT22;29763;50.904;5.530;2023-03-14T16:43:00;6.20;99.90
11067;DHT22;29763;50.904;5.530;2023-03-14T16:45:28;6.20;99.90
11067;DHT22;29763;50.904;5.530;2023-03-14T16:47:54;6.30;99.90
11067;DHT22;29763;50.904;5.530;2023-03-14T16:50:20;6.20;99.90
11067;DHT22;29763;50.904;5.530;2023-03-14T16:52:46;6.10;99.90
11067;DHT22;29763;50.904;5.530;2023-03-14T16:55:14;6.10;99.90
11067;DHT22;29763;50.904;5.530;2023-03-14T16:57:40;6.10;99.90
11067;DHT22;29763;50.904;5.530;2023-03-14T17:00:06;6.00;99.90
11067;DHT22;29763;50.904;5.530;2023-03-14T17:02:32;6.00;99.90
11067;DHT22;29763;50.904;5.530;2023-03-14T17:04:58;6.00;99.90
11067;DHT22;29763;50.904;5.530;2023-03-14T17:07:24;5.90;99.90